sensor_id;sensor_type;location;lat;lon;timestamp;P1;durP1;ratioP1;P2;durP2;ratioP2
44750;SDS011;30477;48.224;11.470;2022-11-20T00:00:42;6.23;;;4.07;;
44750;SDS011;30477;48.224;11.470;2022-11-20T00:03:07;5.60;;;4.03;;
44750;SDS011;30477;48.224;11.470;2022-11-20T00:05:33;4.40;;;3.60;;
44750;SDS011;30477;48.224;11.470;2022-11-20T00:07:58;6.97;;;3.47;;
44750;SDS011;30477;48.224;11.470;2022-11-20T00:10:23;3.87;;;3.40;;
44750;SDS011;30477;48.224;11.470;2022-11-20T00:12:49;5.17;;;3.67;;
44750;SDS011;30477;48.224;11.470;2022-11-20T00:15:14;5.10;;;3.87;;
44750;SDS011;30477;48.224;11.470;2022-11-20T00:17:40;5.83;;;3.67;;
44750;SDS011;30477;48.224;11.470;2022-11-20T00:20:05;5.43;;;3.60;;
44750;SDS011;30477;48.224;11.470;2022-11-20T00:22:31;6.35;;;3.53;;
44750;SDS011;30477;48.224;11.470;2022-11-20T00:24:56;4.40;;;3.87;;
44750;SDS011;30477;48.224;11.470;2022-11-20T00:29:48;4.30;;;3.53;;
44750;SDS011;30477;48.224;11.470;2022-11-20T00:32:13;4.87;;;3.60;;
44750;SDS011;30477;48.224;11.470;2022-11-20T00:34:38;4.90;;;4.00;;
44750;SDS011;30477;48.224;11.470;2022-11-20T00:37:04;5.37;;;3.97;;
44750;SDS011;30477;48.224;11.470;2022-11-20T00:39:31;4.85;;;3.60;;
44750;SDS011;30477;48.224;11.470;2022-11-20T00:41:57;5.20;;;4.07;;
44750;SDS011;30477;48.224;11.470;2022-11-20T00:44:22;7.40;;;4.17;;
44750;SDS011;30477;48.224;11.470;2022-11-20T00:46:47;5.47;;;4.00;;
44750;SDS011;30477;48.224;11.470;2022-11-20T00:49:13;5.20;;;3.77;;
44750;SDS011;30477;48.224;11.470;2022-11-20T00:51:39;6.38;;;3.83;;
44750;SDS011;30477;48.224;11.470;2022-11-20T00:54:04;5.10;;;3.57;;
44750;SDS011;30477;48.224;11.470;2022-11-20T00:56:29;7.17;;;4.07;;
44750;SDS011;30477;48.224;11.470;2022-11-20T00:58:55;8.48;;;4.40;;
44750;SDS011;30477;48.224;11.470;2022-11-20T01:01:27;6.10;;;3.85;;
44750;SDS011;30477;48.224;11.470;2022-11-20T01:03:55;5.45;;;4.38;;
44750;SDS011;30477;48.224;11.470;2022-11-20T01:08:52;6.43;;;4.00;;
44750;SDS011;30477;48.224;11.470;2022-11-20T01:11:20;4.47;;;3.88;;
44750;SDS011;30477;48.224;11.470;2022-11-20T01:14:16;4.50;;;3.88;;
44750;SDS011;30477;48.224;11.470;2022-11-20T01:16:45;7.10;;;4.03;;
44750;SDS011;30477;48.224;11.470;2022-11-20T01:19:14;5.63;;;4.15;;
44750;SDS011;30477;48.224;11.470;2022-11-20T01:21:42;4.78;;;4.05;;
44750;SDS011;30477;48.224;11.470;2022-11-20T01:24:10;6.20;;;4.20;;
44750;SDS011;30477;48.224;11.470;2022-11-20T01:26:38;5.03;;;4.32;;
44750;SDS011;30477;48.224;11.470;2022-11-20T01:29:15;6.32;;;4.28;;
44750;SDS011;30477;48.224;11.470;2022-11-20T01:31:45;6.00;;;4.38;;
44750;SDS011;30477;48.224;11.470;2022-11-20T01:34:15;6.83;;;4.47;;
44750;SDS011;30477;48.224;11.470;2022-11-20T01:36:42;6.13;;;4.25;;
44750;SDS011;30477;48.224;11.470;2022-11-20T01:39:13;6.88;;;4.10;;
44750;SDS011;30477;48.224;11.470;2022-11-20T01:41:44;9.70;;;4.40;;
44750;SDS011;30477;48.224;11.470;2022-11-20T01:47:48;5.80;;;4.00;;
44750;SDS011;30477;48.224;11.470;2022-11-20T01:52:42;5.75;;;3.97;;
44750;SDS011;30477;48.224;11.470;2022-11-20T01:55:15;6.70;;;4.03;;
44750;SDS011;30477;48.224;11.470;2022-11-20T01:57:44;5.32;;;4.15;;
44750;SDS011;30477;48.224;11.470;2022-11-20T02:00:12;4.47;;;4.05;;
44750;SDS011;30477;48.224;11.470;2022-11-20T02:02:41;6.35;;;4.30;;
44750;SDS011;30477;48.224;11.470;2022-11-20T02:08:02;6.40;;;4.35;;
44750;SDS011;30477;48.224;11.470;2022-11-20T02:10:29;6.05;;;4.18;;
44750;SDS011;30477;48.224;11.470;2022-11-20T02:15:40;7.20;;;4.10;;
44750;SDS011;30477;48.224;11.470;2022-11-20T02:18:05;5.18;;;4.53;;
44750;SDS011;30477;48.224;11.470;2022-11-20T02:20:32;6.78;;;3.88;;
44750;SDS011;30477;48.224;11.470;2022-11-20T02:23:05;7.23;;;4.50;;
44750;SDS011;30477;48.224;11.470;2022-11-20T02:25:49;5.18;;;4.50;;
44750;SDS011;30477;48.224;11.470;2022-11-20T02:28:21;7.63;;;4.40;;
44750;SDS011;30477;48.224;11.470;2022-11-20T02:30:47;6.05;;;4.22;;
44750;SDS011;30477;48.224;11.470;2022-11-20T02:33:12;6.50;;;4.40;;
44750;SDS011;30477;48.224;11.470;2022-11-20T02:35:42;6.47;;;4.43;;
44750;SDS011;30477;48.224;11.470;2022-11-20T02:38:12;5.38;;;4.35;;
44750;SDS011;30477;48.224;11.470;2022-11-20T02:40:39;6.28;;;4.47;;
44750;SDS011;30477;48.224;11.470;2022-11-20T02:43:04;5.37;;;4.47;;
44750;SDS011;30477;48.224;11.470;2022-11-20T02:45:30;6.00;;;4.87;;
44750;SDS011;30477;48.224;11.470;2022-11-20T02:47:56;6.55;;;4.90;;
44750;SDS011;30477;48.224;11.470;2022-11-20T02:50:21;8.67;;;4.80;;
44750;SDS011;30477;48.224;11.470;2022-11-20T02:52:47;6.17;;;4.67;;
44750;SDS011;30477;48.224;11.470;2022-11-20T02:55:12;8.57;;;4.97;;
44750;SDS011;30477;48.224;11.470;2022-11-20T02:57:38;5.57;;;4.73;;
44750;SDS011;30477;48.224;11.470;2022-11-20T03:00:03;7.00;;;4.80;;
44750;SDS011;30477;48.224;11.470;2022-11-20T03:04:55;6.90;;;4.53;;
44750;SDS011;30477;48.224;11.470;2022-11-20T03:07:21;5.33;;;4.80;;
44750;SDS011;30477;48.224;11.470;2022-11-20T03:09:46;7.47;;;5.07;;
44750;SDS011;30477;48.224;11.470;2022-11-20T03:12:12;4.57;;;4.17;;
44750;SDS011;30477;48.224;11.470;2022-11-20T03:14:37;6.13;;;4.72;;
44750;SDS011;30477;48.224;11.470;2022-11-20T03:17:03;7.60;;;4.87;;
44750;SDS011;30477;48.224;11.470;2022-11-20T03:19:28;6.70;;;4.30;;
44750;SDS011;30477;48.224;11.470;2022-11-20T03:21:56;4.72;;;4.30;;
44750;SDS011;30477;48.224;11.470;2022-11-20T03:24:25;5.97;;;4.82;;
44750;SDS011;30477;48.224;11.470;2022-11-20T03:26:51;6.07;;;4.13;;
44750;SDS011;30477;48.224;11.470;2022-11-20T03:29:16;9.73;;;4.60;;
44750;SDS011;30477;48.224;11.470;2022-11-20T03:31:42;5.53;;;4.70;;
44750;SDS011;30477;48.224;11.470;2022-11-20T03:34:08;5.47;;;3.83;;
44750;SDS011;30477;48.224;11.470;2022-11-20T03:36:37;6.20;;;4.18;;
44750;SDS011;30477;48.224;11.470;2022-11-20T03:39:04;5.65;;;4.47;;
44750;SDS011;30477;48.224;11.470;2022-11-20T03:41:30;4.43;;;4.00;;
44750;SDS011;30477;48.224;11.470;2022-11-20T03:44:03;5.85;;;4.50;;
44750;SDS011;30477;48.224;11.470;2022-11-20T03:46:30;7.63;;;4.38;;
44750;SDS011;30477;48.224;11.470;2022-11-20T03:48:56;4.20;;;3.73;;
44750;SDS011;30477;48.224;11.470;2022-11-20T03:51:23;7.38;;;4.32;;
44750;SDS011;30477;48.224;11.470;2022-11-20T03:53:53;4.82;;;3.90;;
44750;SDS011;30477;48.224;11.470;2022-11-20T03:56:22;5.13;;;4.20;;
44750;SDS011;30477;48.224;11.470;2022-11-20T03:58:49;5.28;;;4.07;;
44750;SDS011;30477;48.224;11.470;2022-11-20T04:01:16;5.25;;;3.70;;
44750;SDS011;30477;48.224;11.470;2022-11-20T04:03:44;4.90;;;3.90;;
44750;SDS011;30477;48.224;11.470;2022-11-20T04:06:12;5.55;;;4.00;;
44750;SDS011;30477;48.224;11.470;2022-11-20T04:08:42;6.20;;;4.13;;
44750;SDS011;30477;48.224;11.470;2022-11-20T04:13:37;6.25;;;4.57;;
44750;SDS011;30477;48.224;11.470;2022-11-20T04:16:03;5.70;;;4.35;;
44750;SDS011;30477;48.224;11.470;2022-11-20T04:18:30;4.82;;;3.85;;
44750;SDS011;30477;48.224;11.470;2022-11-20T04:20:56;5.10;;;3.83;;
44750;SDS011;30477;48.224;11.470;2022-11-20T04:23:22;4.40;;;3.83;;
44750;SDS011;30477;48.224;11.470;2022-11-20T04:25:47;6.00;;;3.93;;
44750;SDS011;30477;48.224;11.470;2022-11-20T04:28:13;4.40;;;4.00;;
44750;SDS011;30477;48.224;11.470;2022-11-20T04:30:38;5.10;;;4.10;;
44750;SDS011;30477;48.224;11.470;2022-11-20T04:33:03;5.53;;;4.10;;
44750;SDS011;30477;48.224;11.470;2022-11-20T04:35:35;5.53;;;4.00;;
44750;SDS011;30477;48.224;11.470;2022-11-20T04:38:00;7.15;;;4.40;;
44750;SDS011;30477;48.224;11.470;2022-11-20T04:40:27;5.85;;;4.00;;
44750;SDS011;30477;48.224;11.470;2022-11-20T04:42:53;4.95;;;3.80;;
44750;SDS011;30477;48.224;11.470;2022-11-20T04:45:19;5.55;;;4.15;;
44750;SDS011;30477;48.224;11.470;2022-11-20T04:47:44;4.83;;;4.27;;
44750;SDS011;30477;48.224;11.470;2022-11-20T04:50:10;7.27;;;4.10;;
44750;SDS011;30477;48.224;11.470;2022-11-20T04:52:35;4.93;;;4.40;;
44750;SDS011;30477;48.224;11.470;2022-11-20T04:55:00;6.70;;;4.37;;
44750;SDS011;30477;48.224;11.470;2022-11-20T04:57:26;5.47;;;4.20;;
44750;SDS011;30477;48.224;11.470;2022-11-20T04:59:51;7.10;;;4.27;;
44750;SDS011;30477;48.224;11.470;2022-11-20T05:02:16;4.97;;;4.00;;
44750;SDS011;30477;48.224;11.470;2022-11-20T05:04:42;4.80;;;4.23;;
44750;SDS011;30477;48.224;11.470;2022-11-20T05:07:07;4.83;;;4.13;;
44750;SDS011;30477;48.224;11.470;2022-11-20T05:09:32;6.83;;;4.47;;
44750;SDS011;30477;48.224;11.470;2022-11-20T05:11:58;6.13;;;4.47;;
44750;SDS011;30477;48.224;11.470;2022-11-20T05:14:23;8.30;;;4.03;;
44750;SDS011;30477;48.224;11.470;2022-11-20T05:16:49;5.57;;;4.00;;
44750;SDS011;30477;48.224;11.470;2022-11-20T05:19:14;7.83;;;4.70;;
44750;SDS011;30477;48.224;11.470;2022-11-20T05:21:39;5.23;;;4.03;;
44750;SDS011;30477;48.224;11.470;2022-11-20T05:24:05;4.80;;;4.30;;
44750;SDS011;30477;48.224;11.470;2022-11-20T05:26:30;5.43;;;3.88;;
44750;SDS011;30477;48.224;11.470;2022-11-20T05:28:56;7.83;;;3.70;;
44750;SDS011;30477;48.224;11.470;2022-11-20T05:31:22;5.10;;;4.03;;
44750;SDS011;30477;48.224;11.470;2022-11-20T05:33:48;5.03;;;3.67;;
44750;SDS011;30477;48.224;11.470;2022-11-20T05:36:14;4.20;;;3.80;;
44750;SDS011;30477;48.224;11.470;2022-11-20T05:38:40;6.13;;;3.70;;
44750;SDS011;30477;48.224;11.470;2022-11-20T05:41:16;4.00;;;3.60;;
44750;SDS011;30477;48.224;11.470;2022-11-20T05:43:44;4.50;;;4.07;;
44750;SDS011;30477;48.224;11.470;2022-11-20T05:46:11;4.03;;;3.45;;
44750;SDS011;30477;48.224;11.470;2022-11-20T05:48:39;5.90;;;3.97;;
44750;SDS011;30477;48.224;11.470;2022-11-20T05:51:06;4.30;;;3.47;;
44750;SDS011;30477;48.224;11.470;2022-11-20T05:53:34;4.88;;;3.70;;
44750;SDS011;30477;48.224;11.470;2022-11-20T05:56:01;7.22;;;3.70;;
44750;SDS011;30477;48.224;11.470;2022-11-20T05:58:28;3.92;;;3.50;;
44750;SDS011;30477;48.224;11.470;2022-11-20T06:00:54;4.20;;;3.53;;
44750;SDS011;30477;48.224;11.470;2022-11-20T06:03:20;4.00;;;3.60;;
44750;SDS011;30477;48.224;11.470;2022-11-20T06:05:45;4.00;;;3.60;;
44750;SDS011;30477;48.224;11.470;2022-11-20T06:08:11;5.30;;;3.67;;
44750;SDS011;30477;48.224;11.470;2022-11-20T06:10:37;4.03;;;3.42;;
44750;SDS011;30477;48.224;11.470;2022-11-20T06:13:02;4.43;;;3.97;;
44750;SDS011;30477;48.224;11.470;2022-11-20T06:15:27;4.37;;;3.60;;
44750;SDS011;30477;48.224;11.470;2022-11-20T06:17:53;4.03;;;3.60;;
44750;SDS011;30477;48.224;11.470;2022-11-20T06:20:20;4.43;;;3.45;;
44750;SDS011;30477;48.224;11.470;2022-11-20T06:22:45;4.82;;;3.80;;
44750;SDS011;30477;48.224;11.470;2022-11-20T06:25:11;4.43;;;3.30;;
44750;SDS011;30477;48.224;11.470;2022-11-20T06:27:36;4.88;;;3.72;;
44750;SDS011;30477;48.224;11.470;2022-11-20T06:30:02;5.97;;;3.90;;
44750;SDS011;30477;48.224;11.470;2022-11-20T06:32:28;3.88;;;3.47;;
44750;SDS011;30477;48.224;11.470;2022-11-20T06:34:55;3.55;;;3.25;;
44750;SDS011;30477;48.224;11.470;2022-11-20T06:37:20;5.10;;;3.50;;
44750;SDS011;30477;48.224;11.470;2022-11-20T06:39:45;5.50;;;3.70;;
44750;SDS011;30477;48.224;11.470;2022-11-20T06:42:11;5.27;;;3.57;;
44750;SDS011;30477;48.224;11.470;2022-11-20T06:44:36;3.93;;;3.20;;
44750;SDS011;30477;48.224;11.470;2022-11-20T06:47:01;4.50;;;3.50;;
44750;SDS011;30477;48.224;11.470;2022-11-20T06:49:27;3.80;;;3.20;;
44750;SDS011;30477;48.224;11.470;2022-11-20T06:51:52;4.53;;;3.37;;
44750;SDS011;30477;48.224;11.470;2022-11-20T06:54:17;3.57;;;3.20;;
44750;SDS011;30477;48.224;11.470;2022-11-20T06:56:46;5.03;;;3.13;;
44750;SDS011;30477;48.224;11.470;2022-11-20T06:59:13;4.00;;;3.10;;
44750;SDS011;30477;48.224;11.470;2022-11-20T07:01:38;4.10;;;3.10;;
44750;SDS011;30477;48.224;11.470;2022-11-20T07:04:03;9.60;;;5.93;;
44750;SDS011;30477;48.224;11.470;2022-11-20T07:06:29;7.83;;;5.13;;
44750;SDS011;30477;48.224;11.470;2022-11-20T07:08:55;8.17;;;5.33;;
44750;SDS011;30477;48.224;11.470;2022-11-20T07:11:21;6.53;;;4.43;;
44750;SDS011;30477;48.224;11.470;2022-11-20T07:13:47;5.83;;;3.97;;
44750;SDS011;30477;48.224;11.470;2022-11-20T07:16:12;6.03;;;4.17;;
44750;SDS011;30477;48.224;11.470;2022-11-20T07:18:38;6.27;;;4.67;;
44750;SDS011;30477;48.224;11.470;2022-11-20T07:21:04;5.43;;;3.97;;
44750;SDS011;30477;48.224;11.470;2022-11-20T07:23:31;9.00;;;5.40;;
44750;SDS011;30477;48.224;11.470;2022-11-20T07:25:57;10.63;;;6.47;;
44750;SDS011;30477;48.224;11.470;2022-11-20T07:28:23;7.47;;;4.75;;
44750;SDS011;30477;48.224;11.470;2022-11-20T07:30:52;6.83;;;4.70;;
44750;SDS011;30477;48.224;11.470;2022-11-20T07:33:20;9.73;;;5.43;;
44750;SDS011;30477;48.224;11.470;2022-11-20T07:35:46;21.58;;;10.23;;
44750;SDS011;30477;48.224;11.470;2022-11-20T07:38:12;15.93;;;8.32;;
44750;SDS011;30477;48.224;11.470;2022-11-20T07:40:37;6.23;;;4.73;;
44750;SDS011;30477;48.224;11.470;2022-11-20T07:43:02;5.40;;;4.07;;
44750;SDS011;30477;48.224;11.470;2022-11-20T07:45:28;6.03;;;4.13;;
44750;SDS011;30477;48.224;11.470;2022-11-20T07:47:53;4.17;;;3.77;;
44750;SDS011;30477;48.224;11.470;2022-11-20T07:50:19;5.93;;;4.10;;
44750;SDS011;30477;48.224;11.470;2022-11-20T07:52:45;5.35;;;4.07;;
44750;SDS011;30477;48.224;11.470;2022-11-20T07:55:10;6.15;;;4.10;;
44750;SDS011;30477;48.224;11.470;2022-11-20T07:57:36;4.68;;;4.05;;
44750;SDS011;30477;48.224;11.470;2022-11-20T08:00:02;5.27;;;3.90;;
44750;SDS011;30477;48.224;11.470;2022-11-20T08:02:29;4.97;;;3.75;;
44750;SDS011;30477;48.224;11.470;2022-11-20T08:04:54;5.53;;;3.77;;
44750;SDS011;30477;48.224;11.470;2022-11-20T08:07:21;5.05;;;3.85;;
44750;SDS011;30477;48.224;11.470;2022-11-20T08:09:46;5.77;;;4.43;;
44750;SDS011;30477;48.224;11.470;2022-11-20T08:12:18;4.40;;;3.90;;
44750;SDS011;30477;48.224;11.470;2022-11-20T08:15:03;5.53;;;3.63;;
44750;SDS011;30477;48.224;11.470;2022-11-20T08:17:30;6.60;;;4.20;;
44750;SDS011;30477;48.224;11.470;2022-11-20T08:19:55;5.63;;;3.60;;
44750;SDS011;30477;48.224;11.470;2022-11-20T08:22:22;4.32;;;3.92;;
44750;SDS011;30477;48.224;11.470;2022-11-20T08:24:47;4.97;;;4.17;;
44750;SDS011;30477;48.224;11.470;2022-11-20T08:27:13;4.10;;;3.67;;
44750;SDS011;30477;48.224;11.470;2022-11-20T08:29:38;4.50;;;3.93;;
44750;SDS011;30477;48.224;11.470;2022-11-20T08:32:04;4.73;;;4.20;;
44750;SDS011;30477;48.224;11.470;2022-11-20T08:34:29;4.50;;;4.00;;
44750;SDS011;30477;48.224;11.470;2022-11-20T08:36:55;5.40;;;4.07;;
44750;SDS011;30477;48.224;11.470;2022-11-20T08:39:20;6.37;;;4.37;;
44750;SDS011;30477;48.224;11.470;2022-11-20T08:41:45;5.60;;;4.00;;
44750;SDS011;30477;48.224;11.470;2022-11-20T08:44:11;5.33;;;4.13;;
44750;SDS011;30477;48.224;11.470;2022-11-20T08:46:37;5.70;;;4.30;;
44750;SDS011;30477;48.224;11.470;2022-11-20T08:49:09;11.88;;;7.13;;
44750;SDS011;30477;48.224;11.470;2022-11-20T08:51:35;4.88;;;3.72;;
44750;SDS011;30477;48.224;11.470;2022-11-20T08:54:02;5.70;;;4.28;;
44750;SDS011;30477;48.224;11.470;2022-11-20T08:56:28;6.55;;;4.68;;
44750;SDS011;30477;48.224;11.470;2022-11-20T08:58:53;7.60;;;4.10;;
44750;SDS011;30477;48.224;11.470;2022-11-20T09:01:19;4.67;;;4.17;;
44750;SDS011;30477;48.224;11.470;2022-11-20T09:03:45;5.65;;;3.97;;
44750;SDS011;30477;48.224;11.470;2022-11-20T09:06:11;5.33;;;3.87;;
44750;SDS011;30477;48.224;11.470;2022-11-20T09:08:37;3.63;;;3.33;;
44750;SDS011;30477;48.224;11.470;2022-11-20T09:11:02;4.63;;;4.10;;
44750;SDS011;30477;48.224;11.470;2022-11-20T09:13:30;4.45;;;3.53;;
44750;SDS011;30477;48.224;11.470;2022-11-20T09:18:23;3.67;;;3.30;;
44750;SDS011;30477;48.224;11.470;2022-11-20T09:20:51;4.47;;;3.58;;
44750;SDS011;30477;48.224;11.470;2022-11-20T09:23:17;4.63;;;3.77;;
44750;SDS011;30477;48.224;11.470;2022-11-20T09:25:43;4.68;;;3.05;;
44750;SDS011;30477;48.224;11.470;2022-11-20T09:28:08;4.27;;;3.33;;
44750;SDS011;30477;48.224;11.470;2022-11-20T09:30:34;3.77;;;3.03;;
44750;SDS011;30477;48.224;11.470;2022-11-20T09:32:59;3.93;;;3.40;;
44750;SDS011;30477;48.224;11.470;2022-11-20T09:35:25;5.07;;;3.37;;
44750;SDS011;30477;48.224;11.470;2022-11-20T09:37:50;6.33;;;3.70;;
44750;SDS011;30477;48.224;11.470;2022-11-20T09:40:20;6.22;;;4.57;;
44750;SDS011;30477;48.224;11.470;2022-11-20T09:42:55;4.57;;;3.67;;
44750;SDS011;30477;48.224;11.470;2022-11-20T09:45:39;4.93;;;3.40;;
44750;SDS011;30477;48.224;11.470;2022-11-20T09:48:20;4.45;;;3.60;;
44750;SDS011;30477;48.224;11.470;2022-11-20T09:56:22;4.03;;;3.28;;
44750;SDS011;30477;48.224;11.470;2022-11-20T09:58:51;4.57;;;3.47;;
44750;SDS011;30477;48.224;11.470;2022-11-20T10:01:23;4.57;;;3.60;;
44750;SDS011;30477;48.224;11.470;2022-11-20T10:03:55;4.40;;;3.03;;
44750;SDS011;30477;48.224;11.470;2022-11-20T10:09:20;4.85;;;3.30;;
44750;SDS011;30477;48.224;11.470;2022-11-20T10:14:36;4.57;;;3.22;;
44750;SDS011;30477;48.224;11.470;2022-11-20T10:22:44;4.00;;;2.67;;
44750;SDS011;30477;48.224;11.470;2022-11-20T10:30:49;4.22;;;2.67;;
44750;SDS011;30477;48.224;11.470;2022-11-20T10:33:32;3.55;;;2.60;;
44750;SDS011;30477;48.224;11.470;2022-11-20T10:36:14;3.40;;;2.63;;
44750;SDS011;30477;48.224;11.470;2022-11-20T10:38:46;4.22;;;2.80;;
44750;SDS011;30477;48.224;11.470;2022-11-20T10:41:21;3.40;;;2.53;;
44750;SDS011;30477;48.224;11.470;2022-11-20T10:44:00;3.38;;;2.40;;
44750;SDS011;30477;48.224;11.470;2022-11-20T10:46:40;3.67;;;2.50;;
44750;SDS011;30477;48.224;11.470;2022-11-20T10:49:14;3.08;;;2.50;;
44750;SDS011;30477;48.224;11.470;2022-11-20T10:54:49;2.20;;;2.00;;
44750;SDS011;30477;48.224;11.470;2022-11-20T11:00:04;4.35;;;2.13;;
44750;SDS011;30477;48.224;11.470;2022-11-20T11:02:54;2.17;;;1.90;;
44750;SDS011;30477;48.224;11.470;2022-11-20T11:07:55;4.82;;;2.30;;
44750;SDS011;30477;48.224;11.470;2022-11-20T11:10:24;3.05;;;2.10;;
44750;SDS011;30477;48.224;11.470;2022-11-20T11:12:57;2.95;;;1.70;;
44750;SDS011;30477;48.224;11.470;2022-11-20T11:15:35;3.43;;;2.20;;
44750;SDS011;30477;48.224;11.470;2022-11-20T11:18:02;2.60;;;1.85;;
44750;SDS011;30477;48.224;11.470;2022-11-20T11:20:28;3.20;;;2.00;;
44750;SDS011;30477;48.224;11.470;2022-11-20T11:22:54;2.97;;;2.37;;
44750;SDS011;30477;48.224;11.470;2022-11-20T11:25:33;2.60;;;1.95;;
44750;SDS011;30477;48.224;11.470;2022-11-20T11:28:02;3.47;;;2.10;;
44750;SDS011;30477;48.224;11.470;2022-11-20T11:30:30;3.78;;;2.35;;
44750;SDS011;30477;48.224;11.470;2022-11-20T11:33:09;3.08;;;2.28;;
44750;SDS011;30477;48.224;11.470;2022-11-20T11:35:43;2.80;;;2.30;;
44750;SDS011;30477;48.224;11.470;2022-11-20T11:38:16;2.95;;;2.30;;
44750;SDS011;30477;48.224;11.470;2022-11-20T11:40:44;2.20;;;2.00;;
44750;SDS011;30477;48.224;11.470;2022-11-20T11:43:22;2.38;;;2.10;;
44750;SDS011;30477;48.224;11.470;2022-11-20T11:46:31;3.10;;;2.25;;
44750;SDS011;30477;48.224;11.470;2022-11-20T11:49:11;2.90;;;2.10;;
44750;SDS011;30477;48.224;11.470;2022-11-20T11:51:55;3.75;;;2.40;;
44750;SDS011;30477;48.224;11.470;2022-11-20T11:57:03;3.58;;;2.53;;
44750;SDS011;30477;48.224;11.470;2022-11-20T12:05:29;2.38;;;1.75;;
44750;SDS011;30477;48.224;11.470;2022-11-20T12:15:58;2.47;;;2.20;;
44750;SDS011;30477;48.224;11.470;2022-11-20T12:18:25;4.75;;;3.47;;
44750;SDS011;30477;48.224;11.470;2022-11-20T12:26:17;4.55;;;2.25;;
44750;SDS011;30477;48.224;11.470;2022-11-20T12:37:30;4.40;;;3.30;;
44750;SDS011;30477;48.224;11.470;2022-11-20T12:40:24;3.85;;;2.47;;
44750;SDS011;30477;48.224;11.470;2022-11-20T12:45:58;2.28;;;1.83;;
44750;SDS011;30477;48.224;11.470;2022-11-20T12:51:21;3.92;;;2.15;;
44750;SDS011;30477;48.224;11.470;2022-11-20T12:56:44;2.72;;;1.95;;
44750;SDS011;30477;48.224;11.470;2022-11-20T13:02:30;3.47;;;1.85;;
44750;SDS011;30477;48.224;11.470;2022-11-20T13:08:18;2.17;;;1.95;;
44750;SDS011;30477;48.224;11.470;2022-11-20T13:19:19;2.28;;;2.08;;
44750;SDS011;30477;48.224;11.470;2022-11-20T13:21:46;3.50;;;2.33;;
44750;SDS011;30477;48.224;11.470;2022-11-20T13:26:59;3.60;;;2.10;;
44750;SDS011;30477;48.224;11.470;2022-11-20T13:29:25;4.63;;;2.33;;
44750;SDS011;30477;48.224;11.470;2022-11-20T13:31:51;3.40;;;2.10;;
44750;SDS011;30477;48.224;11.470;2022-11-20T13:34:23;3.43;;;2.37;;
44750;SDS011;30477;48.224;11.470;2022-11-20T13:36:51;3.30;;;2.50;;
44750;SDS011;30477;48.224;11.470;2022-11-20T13:39:32;3.92;;;2.70;;
44750;SDS011;30477;48.224;11.470;2022-11-20T13:45:02;2.40;;;2.20;;
44750;SDS011;30477;48.224;11.470;2022-11-20T13:47:36;4.82;;;2.80;;
44750;SDS011;30477;48.224;11.470;2022-11-20T13:50:03;3.53;;;2.70;;
44750;SDS011;30477;48.224;11.470;2022-11-20T14:03:34;2.70;;;2.40;;
44750;SDS011;30477;48.224;11.470;2022-11-20T14:06:04;3.53;;;2.83;;
44750;SDS011;30477;48.224;11.470;2022-11-20T14:11:18;3.08;;;2.30;;
44750;SDS011;30477;48.224;11.470;2022-11-20T14:14:03;3.03;;;2.42;;
44750;SDS011;30477;48.224;11.470;2022-11-20T14:16:38;5.20;;;2.95;;
44750;SDS011;30477;48.224;11.470;2022-11-20T14:21:44;5.22;;;2.85;;
44750;SDS011;30477;48.224;11.470;2022-11-20T14:24:39;4.85;;;3.58;;
44750;SDS011;30477;48.224;11.470;2022-11-20T14:27:09;3.53;;;2.90;;
44750;SDS011;30477;48.224;11.470;2022-11-20T14:29:38;4.18;;;2.90;;
44750;SDS011;30477;48.224;11.470;2022-11-20T14:32:03;4.50;;;3.20;;
44750;SDS011;30477;48.224;11.470;2022-11-20T14:34:30;4.22;;;2.83;;
44750;SDS011;30477;48.224;11.470;2022-11-20T14:36:58;4.50;;;3.00;;
44750;SDS011;30477;48.224;11.470;2022-11-20T14:39:36;6.03;;;3.22;;
44750;SDS011;30477;48.224;11.470;2022-11-20T14:42:15;3.17;;;2.75;;
44750;SDS011;30477;48.224;11.470;2022-11-20T14:44:43;3.88;;;2.60;;
44750;SDS011;30477;48.224;11.470;2022-11-20T14:49:39;2.88;;;2.53;;
44750;SDS011;30477;48.224;11.470;2022-11-20T14:57:27;3.45;;;2.60;;
44750;SDS011;30477;48.224;11.470;2022-11-20T15:02:41;6.35;;;4.07;;
44750;SDS011;30477;48.224;11.470;2022-11-20T15:05:08;7.22;;;4.07;;
44750;SDS011;30477;48.224;11.470;2022-11-20T15:07:44;5.63;;;3.30;;
44750;SDS011;30477;48.224;11.470;2022-11-20T15:10:22;5.22;;;3.55;;
44750;SDS011;30477;48.224;11.470;2022-11-20T15:12:52;4.15;;;2.63;;
44750;SDS011;30477;48.224;11.470;2022-11-20T15:18:21;6.03;;;3.13;;
44750;SDS011;30477;48.224;11.470;2022-11-20T15:20:49;5.97;;;3.15;;
44750;SDS011;30477;48.224;11.470;2022-11-20T15:25:46;3.17;;;2.17;;
44750;SDS011;30477;48.224;11.470;2022-11-20T15:30:47;2.63;;;1.77;;
44750;SDS011;30477;48.224;11.470;2022-11-20T15:33:16;4.90;;;2.13;;
44750;SDS011;30477;48.224;11.470;2022-11-20T15:35:48;4.57;;;2.80;;
44750;SDS011;30477;48.224;11.470;2022-11-20T15:38:16;2.90;;;1.90;;
44750;SDS011;30477;48.224;11.470;2022-11-20T15:40:42;2.33;;;1.80;;
44750;SDS011;30477;48.224;11.470;2022-11-20T15:43:07;2.87;;;1.80;;
44750;SDS011;30477;48.224;11.470;2022-11-20T15:45:54;3.17;;;1.97;;
44750;SDS011;30477;48.224;11.470;2022-11-20T15:48:31;3.03;;;2.10;;
44750;SDS011;30477;48.224;11.470;2022-11-20T15:53:39;2.35;;;2.03;;
44750;SDS011;30477;48.224;11.470;2022-11-20T15:56:06;1.95;;;1.60;;
44750;SDS011;30477;48.224;11.470;2022-11-20T15:58:34;3.33;;;1.70;;
44750;SDS011;30477;48.224;11.470;2022-11-20T16:00:59;1.60;;;1.50;;
44750;SDS011;30477;48.224;11.470;2022-11-20T16:03:24;3.77;;;1.60;;
44750;SDS011;30477;48.224;11.470;2022-11-20T16:05:50;2.27;;;1.93;;
44750;SDS011;30477;48.224;11.470;2022-11-20T16:08:15;2.30;;;1.70;;
44750;SDS011;30477;48.224;11.470;2022-11-20T16:10:41;3.83;;;1.80;;
44750;SDS011;30477;48.224;11.470;2022-11-20T16:13:13;2.87;;;1.77;;
44750;SDS011;30477;48.224;11.470;2022-11-20T16:16:01;3.10;;;1.70;;
44750;SDS011;30477;48.224;11.470;2022-11-20T16:18:32;2.80;;;1.70;;
44750;SDS011;30477;48.224;11.470;2022-11-20T16:20:58;2.78;;;1.75;;
44750;SDS011;30477;48.224;11.470;2022-11-20T16:23:24;3.08;;;2.05;;
44750;SDS011;30477;48.224;11.470;2022-11-20T16:25:49;2.97;;;1.85;;
44750;SDS011;30477;48.224;11.470;2022-11-20T16:28:15;2.27;;;1.60;;
44750;SDS011;30477;48.224;11.470;2022-11-20T16:30:41;2.33;;;1.90;;
44750;SDS011;30477;48.224;11.470;2022-11-20T16:33:10;3.60;;;2.33;;
44750;SDS011;30477;48.224;11.470;2022-11-20T16:35:38;3.28;;;2.60;;
44750;SDS011;30477;48.224;11.470;2022-11-20T16:38:21;5.57;;;3.57;;
44750;SDS011;30477;48.224;11.470;2022-11-20T16:40:47;8.55;;;4.93;;
44750;SDS011;30477;48.224;11.470;2022-11-20T16:43:12;7.50;;;4.40;;
44750;SDS011;30477;48.224;11.470;2022-11-20T16:45:42;9.75;;;4.78;;
44750;SDS011;30477;48.224;11.470;2022-11-20T16:48:14;7.28;;;3.35;;
44750;SDS011;30477;48.224;11.470;2022-11-20T16:50:44;4.03;;;2.97;;
44750;SDS011;30477;48.224;11.470;2022-11-20T16:53:13;4.93;;;2.75;;
44750;SDS011;30477;48.224;11.470;2022-11-20T16:55:39;3.57;;;2.70;;
44750;SDS011;30477;48.224;11.470;2022-11-20T16:58:04;5.70;;;3.70;;
44750;SDS011;30477;48.224;11.470;2022-11-20T17:00:30;6.77;;;4.37;;
44750;SDS011;30477;48.224;11.470;2022-11-20T17:02:55;8.50;;;5.23;;
44750;SDS011;30477;48.224;11.470;2022-11-20T17:05:21;6.97;;;4.83;;
44750;SDS011;30477;48.224;11.470;2022-11-20T17:07:46;6.90;;;5.07;;
44750;SDS011;30477;48.224;11.470;2022-11-20T17:10:12;11.27;;;6.90;;
44750;SDS011;30477;48.224;11.470;2022-11-20T17:12:37;11.93;;;7.23;;